Time;durP1;ratioP1;P1;durP2;ratioP2;P2;SDS_P1;SDS_P2;PMS_P1;PMS_P2;Temp;Humidity;BMP_temperature;BMP_pressure;BME280_temperature;BME280_humidity;BME280_pressure;Samples;Min_cycle;Max_cycle;Signal;HPM_P1;HPM_P2
2023/03/06 00:01:55;;;;;;;5.77;4.47;;;3.50;99.90;;;;;;4917172;29;37034;-81
2023/03/06 00:04:27;;;;;;;7.07;4.60;;;3.50;99.90;;;;;;4919066;29;36054;-81
2023/03/06 00:06:55;;;;;;;6.97;4.70;;;3.50;99.90;;;;;;4930637;29;39320;-81
2023/03/06 00:09:22;;;;;;;6.27;4.87;;;3.60;99.90;;;;;;4912051;29;38708;-81
2023/03/06 00:11:51;;;;;;;5.50;4.70;;;3.60;99.90;;;;;;4917784;29;37083;-81
2023/03/06 00:14:18;;;;;;;7.87;4.30;;;3.60;99.90;;;;;;4918497;29;36641;-81
2023/03/06 00:16:55;;;;;;;11.00;5.53;;;3.50;99.90;;;;;;4916005;29;37814;-81
2023/03/06 00:19:33;;;;;;;7.57;5.57;;;3.60;99.90;;;;;;4907589;29;37497;-81
2023/03/06 00:22:02;;;;;;;9.67;4.73;;;3.60;99.90;;;;;;4933194;29;39458;-81
2023/03/06 00:24:30;;;;;;;9.40;5.03;;;3.50;99.90;;;;;;4902320;29;49284;-81
2023/03/06 00:27:00;;;;;;;11.67;5.30;;;3.50;99.90;;;;;;4927977;29;38952;-81
2023/03/06 00:29:27;;;;;;;13.80;7.57;;;3.40;99.90;;;;;;4913166;29;38019;-82
2023/03/06 00:31:54;;;;;;;8.53;6.27;;;3.40;99.90;;;;;;4920207;29;37083;-81
2023/03/06 00:34:23;;;;;;;8.47;6.00;;;3.40;99.90;;;;;;4927187;29;37951;-81
2023/03/06 00:36:49;;;;;;;7.87;5.83;;;3.40;99.90;;;;;;4927124;29;39758;-81
2023/03/06 00:39:16;;;;;;;7.63;5.80;;;3.40;99.90;;;;;;4930867;29;37798;-80
2023/03/06 00:41:42;;;;;;;11.63;6.10;;;3.40;99.90;;;;;;4929171;29;38795;-81
2023/03/06 00:44:09;;;;;;;12.90;7.37;;;3.30;99.90;;;;;;4935527;29;37776;-81
2023/03/06 00:46:35;;;;;;;9.03;6.63;;;3.30;99.90;;;;;;4935409;29;37728;-81
2023/03/06 00:49:03;;;;;;;10.63;6.63;;;3.20;99.90;;;;;;4902214;29;38566;-81
2023/03/06 00:51:37;;;;;;;13.60;7.60;;;3.20;99.90;;;;;;4919801;29;38325;-81
2023/03/06 00:54:17;;;;;;;11.67;6.60;;;3.20;99.90;;;;;;4903197;29;37461;-81
2023/03/06 00:56:45;;;;;;;13.37;7.60;;;3.10;99.90;;;;;;4912950;29;38718;-81
2023/03/06 00:59:11;;;;;;;10.23;6.57;;;3.00;99.90;;;;;;4912195;29;38305;-81
2023/03/06 01:01:53;;;;;;;14.40;7.77;;;3.00;99.90;;;;;;4933509;29;38504;-81
2023/03/06 01:04:31;;;;;;;11.13;7.95;;;3.00;99.90;;;;;;4918198;29;37745;-81
2023/03/06 01:06:58;;;;;;;9.60;6.70;;;3.00;99.90;;;;;;4920258;28;38667;-82
2023/03/06 01:10:16;;;;;;;14.17;7.63;;;3.10;99.90;;;;;;4934019;29;38135;-82
2023/03/06 01:12:44;;;;;;;9.83;7.03;;;3.00;99.90;;;;;;4903561;29;47213;-80
2023/03/06 01:15:24;;;;;;;11.37;7.10;;;3.10;99.90;;;;;;4915057;29;37387;-81
2023/03/06 01:18:04;;;;;;;11.17;6.43;;;3.10;99.90;;;;;;4920810;29;38811;-79
2023/03/06 01:20:31;;;;;;;8.10;6.30;;;3.10;99.90;;;;;;4919348;29;48639;-82
2023/03/06 01:22:58;;;;;;;10.87;6.17;;;3.10;99.90;;;;;;4927699;29;38371;-81
2023/03/06 01:25:26;;;;;;;7.53;5.20;;;3.10;99.90;;;;;;4912473;29;36774;-80
2023/03/06 01:27:57;;;;;;;9.67;4.23;;;3.20;99.90;;;;;;4922536;29;37725;-81
2023/03/06 01:30:32;;;;;;;10.27;5.33;;;3.10;99.90;;;;;;4912146;29;37985;-81
2023/03/06 01:33:00;;;;;;;9.50;5.33;;;3.10;99.90;;;;;;4919731;29;35010;-81
2023/03/06 01:35:33;;;;;;;8.03;4.80;;;3.10;99.90;;;;;;4917660;29;37890;-81
2023/03/06 01:38:00;;;;;;;6.57;4.70;;;3.10;99.90;;;;;;4938508;28;40191;-80
2023/03/06 01:40:31;;;;;;;6.50;4.53;;;3.10;99.90;;;;;;4919712;29;38342;-81
2023/03/06 01:43:07;;;;;;;7.80;4.80;;;3.00;99.90;;;;;;4925249;28;39516;-81
2023/03/06 01:45:36;;;;;;;6.13;4.53;;;2.90;99.90;;;;;;4918806;29;48767;-82
2023/03/06 01:48:06;;;;;;;7.27;4.20;;;2.90;99.90;;;;;;4911189;29;38803;-81
2023/03/06 01:50:34;;;;;;;4.63;3.40;;;2.80;99.90;;;;;;4917683;29;38636;-81
2023/03/06 01:53:01;;;;;;;7.57;3.30;;;2.70;99.90;;;;;;4905238;29;36076;-81
2023/03/06 01:55:36;;;;;;;2.33;1.97;;;2.70;99.90;;;;;;4915684;29;48123;-80
2023/03/06 01:58:18;;;;;;;3.17;1.70;;;2.70;99.90;;;;;;4916791;29;38599;-80
2023/03/06 02:03:25;;;;;;;4.63;1.97;;;2.60;99.90;;;;;;5104160;23;20491;-76
2023/03/06 02:05:52;;;;;;;4.80;1.70;;;2.50;99.90;;;;;;4911260;28;36194;-76
2023/03/06 02:08:20;;;;;;;2.80;1.73;;;2.50;99.90;;;;;;4938167;29;39197;-76
2023/03/06 02:11:04;;;;;;;2.30;1.60;;;2.50;99.90;;;;;;4926209;28;38231;-76
2023/03/06 02:13:31;;;;;;;2.93;1.90;;;2.50;99.90;;;;;;4904323;28;47491;-76
2023/03/06 02:15:58;;;;;;;3.13;1.80;;;2.40;99.90;;;;;;4909322;28;36777;-76
2023/03/06 02:18:24;;;;;;;4.00;1.70;;;2.30;99.90;;;;;;4918955;28;39447;-77
2023/03/06 02:20:57;;;;;;;2.43;1.60;;;2.20;99.90;;;;;;4919342;28;39645;-76
2023/03/06 02:23:26;;;;;;;3.07;1.57;;;2.10;99.90;;;;;;4902898;29;38268;-76
2023/03/06 02:25:53;;;;;;;1.77;1.43;;;2.00;99.90;;;;;;4921670;28;38180;-76
2023/03/06 02:28:22;;;;;;;2.00;1.80;;;1.90;99.90;;;;;;4899656;28;37848;-76
2023/03/06 02:30:50;;;;;;;3.27;1.80;;;1.80;99.90;;;;;;4926070;28;38509;-76
2023/03/06 02:33:20;;;;;;;2.53;1.50;;;1.70;99.90;;;;;;4903210;28;36840;-76
2023/03/06 02:35:59;;;;;;;3.93;1.63;;;1.60;99.90;;;;;;4918888;28;37972;-76
2023/03/06 02:38:32;;;;;;;1.80;1.40;;;1.50;99.90;;;;;;4918941;28;38510;-77
2023/03/06 02:41:00;;;;;;;3.40;1.73;;;1.60;99.90;;;;;;4925916;28;39284;-77
2023/03/06 02:43:30;;;;;;;2.80;1.80;;;1.60;99.90;;;;;;4929319;29;47547;-76
2023/03/06 02:45:56;;;;;;;2.40;1.60;;;1.60;99.90;;;;;;4932818;28;37472;-76
2023/03/06 02:48:22;;;;;;;3.73;1.73;;;1.50;99.90;;;;;;4926664;28;39323;-76
2023/03/06 02:50:48;;;;;;;3.07;1.97;;;1.60;99.90;;;;;;4924092;28;39629;-76
2023/03/06 02:53:18;;;;;;;3.27;1.87;;;1.80;99.90;;;;;;4908232;29;37101;-77
2023/03/06 02:55:45;;;;;;;5.57;1.70;;;1.70;99.90;;;;;;4927519;28;36836;-76
2023/03/06 02:58:11;;;;;;;5.37;2.07;;;1.60;99.90;;;;;;4904662;28;37868;-76
2023/03/06 03:00:38;;;;;;;2.83;1.80;;;1.50;99.90;;;;;;4927275;28;38645;-77
2023/03/06 03:03:04;;;;;;;3.67;2.53;;;1.30;99.90;;;;;;4909873;29;39305;-76
2023/03/06 03:05:31;;;;;;;2.93;1.90;;;1.40;99.90;;;;;;4925426;28;38249;-76
2023/03/06 03:07:57;;;;;;;2.20;2.00;;;1.30;99.90;;;;;;4924060;28;39897;-76
2023/03/06 03:10:24;;;;;;;3.47;1.87;;;1.20;99.90;;;;;;4904908;28;37511;-77
2023/03/06 03:12:50;;;;;;;2.43;2.10;;;1.10;99.90;;;;;;4923642;28;37733;-77
2023/03/06 03:15:16;;;;;;;3.43;1.77;;;1.10;99.90;;;;;;4925043;28;36798;-77
2023/03/06 03:17:42;;;;;;;4.93;1.90;;;1.20;99.90;;;;;;4921112;28;39744;-77
2023/03/06 03:20:12;;;;;;;5.50;3.10;;;1.30;99.90;;;;;;4929009;28;39055;-77
2023/03/06 03:22:38;;;;;;;3.67;2.73;;;1.30;99.90;;;;;;4919535;28;38643;-76
2023/03/06 03:25:05;;;;;;;2.63;1.90;;;1.30;99.90;;;;;;4919621;28;38218;-76
2023/03/06 03:27:32;;;;;;;2.53;2.33;;;1.30;99.90;;;;;;4902272;28;39127;-77
2023/03/06 03:29:59;;;;;;;5.23;3.03;;;1.30;99.90;;;;;;4922134;28;37026;-76
2023/03/06 03:32:25;;;;;;;3.43;2.63;;;1.40;99.90;;;;;;4909251;28;36757;-76
2023/03/06 03:34:53;;;;;;;3.73;3.10;;;1.50;99.90;;;;;;4926275;28;37985;-76
2023/03/06 03:37:19;;;;;;;4.33;3.03;;;1.60;99.90;;;;;;4908521;28;38654;-75
2023/03/06 03:39:45;;;;;;;7.60;3.93;;;1.60;99.90;;;;;;4906468;28;37269;-75
2023/03/06 03:42:12;;;;;;;3.67;3.07;;;1.70;99.90;;;;;;4917590;28;36819;-77
2023/03/06 03:44:38;;;;;;;6.10;3.40;;;1.80;99.90;;;;;;4923827;28;38874;-77
2023/03/06 03:47:04;;;;;;;7.93;4.57;;;1.90;99.90;;;;;;4927822;28;38718;-75
2023/03/06 03:49:30;;;;;;;5.57;4.17;;;2.00;99.90;;;;;;4924346;28;39332;-76
2023/03/06 03:51:56;;;;;;;6.83;4.17;;;2.10;99.90;;;;;;4911590;29;37020;-75
2023/03/06 03:54:22;;;;;;;5.83;4.93;;;2.10;99.90;;;;;;4919463;28;36839;-76
2023/03/06 03:56:48;;;;;;;8.00;5.63;;;2.10;99.90;;;;;;4910574;29;39310;-76
2023/03/06 03:59:15;;;;;;;6.50;4.77;;;2.10;99.90;;;;;;4905253;28;37001;-76
2023/03/06 04:01:41;;;;;;;9.47;5.20;;;2.20;99.90;;;;;;4925126;28;41564;-76
2023/03/06 04:04:07;;;;;;;7.03;5.80;;;2.20;99.90;;;;;;4922709;28;37077;-76
2023/03/06 04:06:33;;;;;;;8.70;5.70;;;2.30;99.90;;;;;;4921376;28;39800;-76
2023/03/06 04:08:59;;;;;;;7.67;5.87;;;2.30;99.90;;;;;;4903373;29;38548;-76
2023/03/06 04:11:25;;;;;;;6.13;4.97;;;2.40;99.90;;;;;;4909344;28;37060;-76
2023/03/06 04:13:51;;;;;;;5.47;4.50;;;2.40;99.90;;;;;;4926392;28;37904;-76
2023/03/06 04:16:17;;;;;;;7.63;5.00;;;2.40;99.90;;;;;;4900358;28;37818;-76
2023/03/06 04:18:43;;;;;;;9.87;5.00;;;2.50;99.90;;;;;;4924389;28;39210;-78
2023/03/06 04:21:09;;;;;;;6.20;4.63;;;2.50;99.90;;;;;;4923876;28;39566;-77
2023/03/06 04:23:35;;;;;;;9.43;3.80;;;2.60;99.90;;;;;;4919969;28;37312;-76
2023/03/06 04:26:02;;;;;;;7.67;3.80;;;2.60;99.90;;;;;;4927060;28;38112;-76
2023/03/06 04:28:28;;;;;;;6.77;4.13;;;2.70;99.90;;;;;;4909827;29;38088;-76
2023/03/06 04:30:54;;;;;;;5.97;3.00;;;2.70;99.90;;;;;;4925184;28;38633;-76
2023/03/06 04:33:20;;;;;;;4.40;3.67;;;2.80;99.90;;;;;;4903039;28;35799;-76
2023/03/06 04:35:46;;;;;;;9.37;2.97;;;2.80;99.90;;;;;;4904612;29;37829;-77
2023/03/06 04:38:12;;;;;;;7.00;3.37;;;2.90;99.90;;;;;;4910762;29;37384;-77
2023/03/06 04:40:39;;;;;;;6.17;2.57;;;2.90;99.90;;;;;;4910422;29;36945;-77
2023/03/06 04:43:05;;;;;;;6.40;3.00;;;2.90;99.90;;;;;;4907912;29;35869;-76
2023/03/06 04:45:32;;;;;;;5.73;3.07;;;3.00;99.90;;;;;;4910336;29;37695;-77
2023/03/06 04:47:58;;;;;;;5.23;3.20;;;3.00;99.90;;;;;;4907614;28;38196;-76
2023/03/06 04:50:31;;;;;;;4.37;3.40;;;3.10;99.90;;;;;;4902875;28;37238;-76
2023/03/06 04:53:01;;;;;;;4.75;2.40;;;3.10;99.90;;;;;;4905000;28;37937;-77
2023/03/06 04:55:27;;;;;;;3.83;3.10;;;3.10;99.90;;;;;;4919785;28;47463;-76
2023/03/06 04:57:53;;;;;;;5.00;3.07;;;3.10;99.90;;;;;;4911807;29;38110;-77
2023/03/06 05:00:29;;;;;;;5.70;3.10;;;3.10;99.90;;;;;;4907199;29;38026;-76
2023/03/06 05:02:56;;;;;;;7.30;3.73;;;3.20;99.90;;;;;;4907097;28;36995;-76
2023/03/06 05:05:22;;;;;;;7.47;3.93;;;3.20;99.90;;;;;;4908291;29;37485;-78
2023/03/06 05:07:48;;;;;;;9.67;4.10;;;3.20;99.90;;;;;;4908438;29;37545;-77
2023/03/06 05:10:16;;;;;;;8.10;4.70;;;3.30;99.90;;;;;;4910811;29;38423;-76
2023/03/06 05:12:42;;;;;;;7.83;4.50;;;3.30;99.90;;;;;;4931645;28;37168;-78
2023/03/06 05:15:10;;;;;;;7.43;5.30;;;3.30;99.90;;;;;;4915331;29;37727;-78
2023/03/06 05:17:36;;;;;;;9.10;5.23;;;3.30;99.90;;;;;;4912100;29;38765;-78
2023/03/06 05:20:05;;;;;;;7.47;5.17;;;3.30;99.90;;;;;;4926053;29;38314;-77
2023/03/06 05:22:32;;;;;;;10.33;6.30;;;3.40;99.90;;;;;;4932124;29;48787;-77
2023/03/06 05:24:59;;;;;;;7.83;6.20;;;3.40;99.90;;;;;;4927354;28;39570;-77
2023/03/06 05:27:25;;;;;;;10.27;5.93;;;3.40;99.90;;;;;;4911486;28;38746;-78
2023/03/06 05:29:52;;;;;;;10.03;6.20;;;3.40;99.90;;;;;;4930377;28;37998;-78
2023/03/06 05:32:18;;;;;;;11.50;7.27;;;3.40;99.90;;;;;;4910272;29;35169;-75
2023/03/06 05:34:45;;;;;;;10.70;7.33;;;3.50;99.90;;;;;;4912007;29;20056;-77
2023/03/06 05:37:11;;;;;;;13.60;7.70;;;3.50;99.90;;;;;;4905779;29;37329;-76
2023/03/06 05:39:38;;;;;;;15.30;7.70;;;3.50;99.90;;;;;;4912563;28;36812;-77
2023/03/06 05:42:04;;;;;;;13.67;8.63;;;3.50;99.90;;;;;;4909038;29;37488;-77
2023/03/06 05:44:34;;;;;;;15.17;8.73;;;3.50;99.90;;;;;;4919467;28;39889;-77
2023/03/06 05:47:01;;;;;;;17.77;10.00;;;3.50;99.90;;;;;;4911535;28;37206;-78
2023/03/06 05:49:34;;;;;;;18.23;9.97;;;3.60;99.90;;;;;;4926889;28;49523;-77
2023/03/06 05:52:04;;;;;;;16.90;9.90;;;3.60;99.90;;;;;;4925310;28;36813;-77
2023/03/06 05:54:35;;;;;;;18.17;10.13;;;3.60;99.90;;;;;;4924752;28;46852;-74
2023/03/06 05:57:03;;;;;;;15.77;9.40;;;3.50;99.90;;;;;;4927048;28;38308;-76
2023/03/06 05:59:31;;;;;;;13.33;8.70;;;3.30;99.90;;;;;;4927337;28;37839;-76
2023/03/06 06:01:58;;;;;;;16.17;10.40;;;3.30;99.90;;;;;;4924852;28;37403;-76
2023/03/06 06:04:25;;;;;;;19.53;9.63;;;3.20;99.90;;;;;;4922876;28;38567;-76
2023/03/06 06:06:54;;;;;;;18.83;11.27;;;3.20;99.90;;;;;;4907211;29;37415;-76
2023/03/06 06:09:23;;;;;;;14.67;9.47;;;3.30;99.90;;;;;;4908596;29;38571;-74
2023/03/06 06:11:51;;;;;;;19.97;9.53;;;3.40;99.90;;;;;;4901981;29;38184;-76
2023/03/06 06:14:17;;;;;;;17.33;10.47;;;3.40;99.90;;;;;;4910590;29;37723;-77
2023/03/06 06:16:44;;;;;;;18.87;10.57;;;3.40;99.90;;;;;;4924707;28;38687;-76
2023/03/06 06:19:17;;;;;;;18.70;11.30;;;3.50;99.90;;;;;;4920815;28;38371;-77
2023/03/06 06:21:52;;;;;;;14.60;8.93;;;3.50;99.90;;;;;;4909039;28;36192;-77
2023/03/06 06:24:21;;;;;;;21.40;11.57;;;3.50;99.90;;;;;;4904367;29;38887;-77
2023/03/06 06:26:55;;;;;;;15.33;9.40;;;3.50;99.90;;;;;;4917412;28;39395;-78
2023/03/06 06:29:22;;;;;;;17.73;9.70;;;3.60;99.90;;;;;;4923918;28;38162;-80
2023/03/06 06:31:49;;;;;;;18.07;9.83;;;3.60;99.90;;;;;;4908303;28;36015;-79
2023/03/06 06:34:15;;;;;;;14.30;9.03;;;3.60;99.90;;;;;;4909749;29;38536;-81
2023/03/06 06:36:42;;;;;;;15.83;9.33;;;3.60;99.90;;;;;;4906114;29;38332;-81
2023/03/06 06:39:10;;;;;;;17.70;10.27;;;3.60;99.90;;;;;;4905608;29;37230;-80
2023/03/06 06:41:36;;;;;;;14.73;10.13;;;3.60;99.90;;;;;;4919529;29;38367;-81
2023/03/06 06:44:06;;;;;;;15.17;10.67;;;3.60;99.90;;;;;;4905268;29;38027;-81
2023/03/06 06:46:33;;;;;;;12.57;9.43;;;3.60;99.90;;;;;;4909066;29;37524;-81
2023/03/06 06:49:01;;;;;;;13.83;9.10;;;3.70;99.90;;;;;;4923814;28;37888;-81
2023/03/06 06:51:34;;;;;;;19.73;11.10;;;3.70;99.90;;;;;;4926083;28;49051;-82
2023/03/06 06:54:00;;;;;;;14.77;10.70;;;3.70;99.90;;;;;;4914819;28;37727;-81
2023/03/06 06:56:26;;;;;;;20.77;10.37;;;3.70;99.90;;;;;;4906216;29;37344;-80
2023/03/06 06:58:53;;;;;;;13.60;9.40;;;3.70;99.90;;;;;;4923115;29;37945;-79
2023/03/06 07:01:21;;;;;;;15.87;8.87;;;3.70;99.90;;;;;;4928132;29;38252;-81
2023/03/06 07:03:47;;;;;;;10.40;7.30;;;3.50;99.90;;;;;;4908615;29;38203;-77
2023/03/06 07:06:13;;;;;;;11.00;7.40;;;3.40;99.90;;;;;;4924935;28;38355;-77
2023/03/06 07:08:40;;;;;;;12.53;8.23;;;3.40;99.90;;;;;;4929099;28;38122;-80
2023/03/06 07:11:12;;;;;;;13.43;8.03;;;3.50;99.90;;;;;;4912884;29;36026;-80
2023/03/06 07:13:38;;;;;;;15.93;7.90;;;3.50;99.90;;;;;;4906919;29;38076;-80
2023/03/06 07:16:05;;;;;;;17.37;7.47;;;3.50;99.90;;;;;;4922713;28;38641;-82
2023/03/06 07:18:31;;;;;;;10.17;6.90;;;3.60;99.90;;;;;;4925180;29;39067;-80
2023/03/06 07:20:57;;;;;;;11.57;7.50;;;3.60;99.90;;;;;;4906876;29;37212;-78
2023/03/06 07:23:25;;;;;;;14.20;7.50;;;3.70;99.90;;;;;;4908168;29;37980;-79
2023/03/06 07:25:56;;;;;;;12.53;8.97;;;3.70;99.90;;;;;;4927717;29;38534;-80
2023/03/06 07:28:22;;;;;;;13.10;9.03;;;3.70;99.90;;;;;;4906258;29;36809;-80
2023/03/06 07:30:48;;;;;;;10.93;8.23;;;3.90;99.90;;;;;;4910682;29;35914;-78
2023/03/06 07:33:15;;;;;;;15.93;10.10;;;3.90;99.90;;;;;;4927607;29;39274;-79
2023/03/06 07:35:43;;;;;;;14.73;8.53;;;3.90;99.90;;;;;;4930314;29;37182;-79
2023/03/06 07:38:09;;;;;;;12.37;7.43;;;3.90;99.90;;;;;;4901862;29;37740;-79
2023/03/06 07:40:37;;;;;;;14.07;8.37;;;3.90;99.90;;;;;;4905309;29;36419;-80
2023/03/06 07:43:04;;;;;;;8.07;7.20;;;4.00;99.90;;;;;;4910674;29;38157;-80
2023/03/06 07:45:30;;;;;;;12.00;8.20;;;4.10;99.90;;;;;;4914411;29;38568;-79
2023/03/06 07:47:57;;;;;;;13.00;8.57;;;4.20;99.90;;;;;;4908748;29;37219;-79
2023/03/06 07:50:24;;;;;;;12.27;9.20;;;4.30;99.90;;;;;;4902994;29;37295;-78
2023/03/06 07:52:50;;;;;;;14.47;9.33;;;4.40;99.90;;;;;;4908742;29;38845;-78
2023/03/06 07:55:16;;;;;;;14.03;8.40;;;4.40;99.90;;;;;;4907107;29;37525;-79
2023/03/06 07:57:42;;;;;;;9.37;6.70;;;4.50;99.90;;;;;;4921832;29;38239;-80
2023/03/06 08:00:14;;;;;;;8.57;6.27;;;4.50;99.90;;;;;;4912809;29;36426;-80
2023/03/06 08:02:41;;;;;;;7.55;6.05;;;4.60;99.90;;;;;;4913316;29;38728;-77
2023/03/06 08:05:11;;;;;;;8.87;6.30;;;4.80;99.90;;;;;;4898394;29;38021;-77
2023/03/06 08:07:37;;;;;;;7.87;4.67;;;4.90;99.90;;;;;;4926244;29;36761;-77
2023/03/06 08:10:04;;;;;;;5.50;4.03;;;5.00;99.90;;;;;;4908568;29;37030;-77
2023/03/06 08:12:31;;;;;;;9.73;5.13;;;5.00;99.90;;;;;;4912289;29;47327;-76
2023/03/06 08:14:57;;;;;;;8.57;5.00;;;5.00;99.90;;;;;;4931902;29;38247;-78
2023/03/06 08:17:23;;;;;;;14.83;7.90;;;5.00;99.90;;;;;;4903613;29;36766;-78
2023/03/06 08:19:49;;;;;;;10.57;8.47;;;5.00;99.90;;;;;;4900473;29;35853;-78
2023/03/06 08:22:15;;;;;;;10.53;7.10;;;5.00;99.90;;;;;;4929006;29;39713;-79
2023/03/06 08:24:42;;;;;;;11.13;7.10;;;5.10;99.90;;;;;;4909836;29;37541;-78
2023/03/06 08:27:08;;;;;;;13.50;8.93;;;5.10;99.90;;;;;;4902672;29;37906;-77
2023/03/06 08:29:34;;;;;;;10.43;8.50;;;5.10;99.90;;;;;;4924125;28;36783;-77
2023/03/06 08:32:00;;;;;;;9.87;7.30;;;5.10;99.90;;;;;;4911863;29;38077;-77
2023/03/06 08:34:26;;;;;;;9.40;5.80;;;5.00;99.90;;;;;;4905276;29;40215;-78
2023/03/06 08:36:52;;;;;;;12.40;6.53;;;4.50;99.90;;;;;;4910818;29;38002;-79
2023/03/06 08:39:19;;;;;;;9.93;5.60;;;4.10;99.90;;;;;;4908671;29;35947;-78
2023/03/06 08:41:46;;;;;;;8.37;5.77;;;3.90;99.90;;;;;;4905687;29;39319;-77
2023/03/06 08:44:12;;;;;;;10.90;7.80;;;3.90;99.90;;;;;;4928720;29;38247;-77
2023/03/06 08:46:39;;;;;;;15.13;8.93;;;3.90;99.90;;;;;;4910091;29;38966;-79
2023/03/06 08:49:05;;;;;;;11.47;8.47;;;3.90;99.90;;;;;;4902751;28;36057;-82
2023/03/06 08:51:32;;;;;;;15.70;10.23;;;3.90;99.90;;;;;;4909899;29;39119;-82
2023/03/06 08:53:58;;;;;;;15.27;10.30;;;3.90;99.90;;;;;;4911606;29;37846;-84
2023/03/06 08:56:27;;;;;;;13.57;10.23;;;4.00;99.90;;;;;;4925862;29;37840;-83
2023/03/06 08:58:54;;;;;;;15.37;10.83;;;3.90;99.90;;;;;;4926778;29;37138;-83
2023/03/06 09:01:27;;;;;;;15.83;11.37;;;3.90;99.90;;;;;;4907575;29;37608;-83
2023/03/06 09:03:56;;;;;;;16.25;10.95;;;4.00;99.90;;;;;;4912652;29;37578;-81
2023/03/06 09:06:24;;;;;;;26.63;14.50;;;4.10;99.90;;;;;;4910231;29;37818;-80
2023/03/06 09:08:51;;;;;;;16.80;12.43;;;4.20;99.90;;;;;;4915879;29;38349;-82
2023/03/06 09:11:19;;;;;;;16.77;12.33;;;4.30;99.90;;;;;;4925729;29;38516;-82
2023/03/06 09:13:45;;;;;;;15.53;11.77;;;4.40;99.90;;;;;;4908097;29;37063;-82
2023/03/06 09:16:11;;;;;;;12.80;10.60;;;4.40;99.90;;;;;;4922512;29;38877;-81
2023/03/06 09:18:38;;;;;;;13.83;11.17;;;4.50;99.90;;;;;;4905731;29;37689;-77
2023/03/06 09:21:04;;;;;;;14.13;10.73;;;4.60;99.90;;;;;;4908879;29;38299;-78
2023/03/06 09:23:31;;;;;;;12.30;9.97;;;4.60;99.90;;;;;;4921919;29;38713;-78
2023/03/06 09:25:59;;;;;;;12.43;9.80;;;4.70;99.90;;;;;;4906394;29;37099;-78
2023/03/06 09:28:25;;;;;;;16.90;10.63;;;4.80;99.90;;;;;;4906454;29;36640;-80
2023/03/06 09:30:51;;;;;;;13.93;10.50;;;5.00;99.90;;;;;;4920657;29;38885;-79
2023/03/06 09:33:18;;;;;;;16.90;9.80;;;5.00;99.90;;;;;;4911099;29;37430;-78
2023/03/06 09:35:51;;;;;;;13.03;9.47;;;5.10;99.90;;;;;;4911141;29;36920;-78
2023/03/06 09:38:18;;;;;;;14.70;10.53;;;5.20;99.90;;;;;;4924594;29;38239;-78
2023/03/06 09:41:04;;;;;;;14.70;9.70;;;5.30;99.90;;;;;;4927700;29;39193;-77
2023/03/06 09:43:43;;;;;;;11.90;9.17;;;5.20;99.90;;;;;;4904489;28;48393;-76
2023/03/06 09:46:35;;;;;;;12.83;8.87;;;5.50;99.90;;;;;;4925044;29;38698;-75
2023/03/06 09:49:01;;;;;;;11.50;9.18;;;5.80;99.90;;;;;;4890390;29;37159;-75
2023/03/06 09:51:38;;;;;;;12.73;9.10;;;6.00;99.90;;;;;;4906617;29;46888;-75
2023/03/06 09:54:12;;;;;;;12.33;9.10;;;6.30;99.90;;;;;;4919026;28;37982;-74
2023/03/06 09:56:42;;;;;;;12.03;9.40;;;6.20;99.90;;;;;;4918444;28;38202;-74
2023/03/06 09:59:20;;;;;;;11.10;7.90;;;6.40;99.90;;;;;;4908127;29;37486;-73
2023/03/06 10:01:58;;;;;;;13.10;8.07;;;6.40;99.90;;;;;;4923432;28;39509;-75
2023/03/06 10:04:35;;;;;;;11.70;7.57;;;6.50;99.90;;;;;;4914079;29;37311;-74
2023/03/06 10:07:17;;;;;;;8.97;6.13;;;6.50;99.90;;;;;;4906169;29;38451;-75
2023/03/06 10:10:05;;;;;;;9.43;5.97;;;6.60;99.90;;;;;;4914000;29;36264;-75
2023/03/06 10:12:43;;;;;;;10.27;6.67;;;6.80;99.90;;;;;;4929282;29;47638;-75
2023/03/06 10:15:19;;;;;;;6.53;4.40;;;7.00;99.90;;;;;;4913370;29;37383;-75
2023/03/06 10:17:46;;;;;;;7.83;5.43;;;7.00;99.90;;;;;;4931704;29;38191;-75
2023/03/06 10:20:27;;;;;;;6.03;4.47;;;7.30;99.90;;;;;;4913934;29;36240;-74
2023/03/06 10:23:29;;;;;;;10.00;4.73;;;7.30;99.90;;;;;;4906206;29;37692;-74
2023/03/06 10:26:08;;;;;;;6.73;4.63;;;7.40;99.90;;;;;;4885880;29;48518;-77
2023/03/06 10:28:40;;;;;;;6.90;4.30;;;7.30;99.90;;;;;;4916076;28;47034;-75
2023/03/06 10:31:15;;;;;;;8.95;4.65;;;7.30;99.90;;;;;;4918295;28;37148;-75
2023/03/06 10:33:55;;;;;;;5.70;4.60;;;7.30;99.90;;;;;;4919325;29;38749;-74
2023/03/06 10:36:26;;;;;;;7.13;4.97;;;7.50;99.90;;;;;;4906010;29;37458;-75
2023/03/06 10:38:55;;;;;;;7.70;4.90;;;7.40;99.90;;;;;;4915975;29;38072;-75
2023/03/06 10:41:24;;;;;;;8.40;4.73;;;7.50;99.90;;;;;;4905951;29;36039;-76
2023/03/06 10:44:03;;;;;;;11.20;5.00;;;7.50;99.90;;;;;;4929843;28;38806;-75
2023/03/06 10:46:35;;;;;;;7.77;4.70;;;7.50;99.90;;;;;;4920891;29;48667;-76
2023/03/06 10:49:21;;;;;;;5.97;4.90;;;7.50;99.90;;;;;;4928327;28;39548;-76
2023/03/06 10:52:08;;;;;;;9.73;5.93;;;7.60;99.90;;;;;;4926453;28;37945;-75
2023/03/06 10:54:40;;;;;;;10.63;6.53;;;7.50;99.90;;;;;;4909578;29;47085;-75
2023/03/06 10:57:28;;;;;;;14.15;7.78;;;7.60;99.90;;;;;;4907363;29;38155;-76
2023/03/06 10:59:54;;;;;;;10.17;6.37;;;7.80;99.90;;;;;;4921896;29;38108;-75
2023/03/06 11:02:32;;;;;;;11.40;6.67;;;8.00;99.90;;;;;;4918147;28;37272;-74
2023/03/06 11:04:59;;;;;;;9.33;6.47;;;7.90;99.90;;;;;;4910229;29;37278;-74
2023/03/06 11:07:31;;;;;;;10.10;6.90;;;7.90;99.90;;;;;;4922165;29;39461;-75
2023/03/06 11:09:57;;;;;;;10.68;6.45;;;8.00;99.90;;;;;;4921880;28;39069;-75
2023/03/06 11:12:40;;;;;;;12.67;7.13;;;8.00;99.90;;;;;;4918418;28;37074;-75
2023/03/06 11:15:06;;;;;;;8.77;5.40;;;8.00;99.90;;;;;;4916514;28;39500;-74
2023/03/06 11:17:34;;;;;;;9.77;5.23;;;8.00;99.90;;;;;;4924559;28;39969;-75
2023/03/06 11:20:21;;;;;;;7.00;5.20;;;8.10;99.90;;;;;;4929178;29;38783;-74
2023/03/06 11:22:58;;;;;;;11.00;5.27;;;8.20;99.90;;;;;;4905149;29;46303;-75
2023/03/06 11:25:31;;;;;;;9.57;5.30;;;8.40;99.90;;;;;;4916117;29;38497;-75
2023/03/06 11:28:07;;;;;;;7.27;4.40;;;8.20;99.90;;;;;;4927348;29;39850;-74
2023/03/06 11:30:46;;;;;;;6.13;4.60;;;8.10;99.90;;;;;;4897266;29;47911;-75
2023/03/06 11:33:20;;;;;;;9.27;4.73;;;8.30;99.90;;;;;;4903015;29;37133;-75
2023/03/06 11:35:56;;;;;;;7.83;4.60;;;8.30;99.90;;;;;;4908920;29;37586;-76
2023/03/06 11:38:41;;;;;;;13.20;5.77;;;8.20;99.90;;;;;;4926925;29;37758;-75
2023/03/06 11:41:17;;;;;;;11.87;6.23;;;8.40;99.90;;;;;;4910680;29;37079;-76
2023/03/06 11:44:02;;;;;;;8.30;5.03;;;8.40;99.90;;;;;;4905923;29;37214;-76
2023/03/06 11:46:37;;;;;;;9.33;5.83;;;8.40;99.90;;;;;;4928537;28;48547;-77
2023/03/06 11:49:33;;;;;;;10.23;5.23;;;8.30;99.90;;;;;;4919131;28;37301;-75
2023/03/06 11:52:09;;;;;;;9.30;5.30;;;8.20;99.90;;;;;;4920022;28;39353;-75
2023/03/06 11:54:35;;;;;;;8.87;5.60;;;8.10;99.90;;;;;;4898112;29;47175;-75
2023/03/06 11:57:25;;;;;;;7.43;5.03;;;8.10;99.90;;;;;;4907731;29;38893;-75
2023/03/06 12:00:10;;;;;;;7.03;5.07;;;8.30;99.90;;;;;;4915793;29;48906;-74
2023/03/06 12:02:38;;;;;;;8.43;4.37;;;8.50;99.90;;;;;;4906097;28;37067;-75
2023/03/06 12:05:31;;;;;;;8.20;5.13;;;8.60;99.90;;;;;;4906251;29;36259;-74
2023/03/06 12:08:18;;;;;;;11.25;6.07;;;8.60;99.90;;;;;;4919314;28;38811;-75
2023/03/06 12:10:47;;;;;;;11.43;6.60;;;8.70;99.90;;;;;;4925585;28;48888;-75
2023/03/06 12:13:34;;;;;;;10.50;5.80;;;8.50;99.90;;;;;;4925753;28;38686;-75
2023/03/06 12:16:23;;;;;;;10.30;6.80;;;8.50;99.90;;;;;;4917734;28;37458;-75
2023/03/06 12:18:55;;;;;;;8.57;6.40;;;8.50;99.90;;;;;;4924017;28;48510;-75
2023/03/06 12:21:48;;;;;;;12.75;6.65;;;8.80;99.90;;;;;;4927288;28;38506;-74
2023/03/06 12:24:26;;;;;;;8.03;5.97;;;9.00;99.90;;;;;;4897028;29;36906;-75
2023/03/06 12:27:09;;;;;;;9.80;6.30;;;9.00;99.90;;;;;;4909740;29;35740;-75
2023/03/06 12:29:48;;;;;;;8.90;6.07;;;8.90;99.90;;;;;;4925581;28;48230;-75
2023/03/06 12:32:26;;;;;;;8.17;6.20;;;8.80;99.90;;;;;;4918113;29;38088;-76
2023/03/06 12:35:21;;;;;;;9.20;6.33;;;8.80;99.90;;;;;;4911841;29;39655;-75
2023/03/06 12:37:53;;;;;;;11.73;7.47;;;8.90;99.90;;;;;;4913008;28;49155;-74
2023/03/06 12:40:43;;;;;;;11.98;7.10;;;9.00;99.90;;;;;;4913209;29;39628;-76
2023/03/06 12:43:57;;;;;;;11.50;7.40;;;8.80;99.90;;;;;;4924554;29;37995;-75
2023/03/06 12:46:26;;;;;;;11.70;7.97;;;8.60;99.90;;;;;;4833216;29;37947;-77
2023/03/06 12:49:08;;;;;;;10.33;7.63;;;8.60;99.90;;;;;;4844092;29;37202;-75
2023/03/06 12:51:36;;;;;;;9.95;7.43;;;8.80;99.90;;;;;;4858210;29;47001;-74
2023/03/06 12:54:02;;;;;;;12.00;6.83;;;8.90;99.90;;;;;;4903375;29;37790;-75
2023/03/06 12:56:29;;;;;;;9.83;6.73;;;8.80;99.90;;;;;;4912469;29;37078;-75
2023/03/06 12:59:01;;;;;;;9.63;6.63;;;8.60;99.90;;;;;;4908922;29;35797;-74
2023/03/06 13:01:55;;;;;;;10.10;7.30;;;8.70;99.90;;;;;;4904857;29;46996;-74
2023/03/06 13:04:48;;;;;;;9.17;6.17;;;8.50;99.90;;;;;;4893589;29;37137;-74
2023/03/06 13:08:03;;;;;;;10.40;6.72;;;8.50;99.90;;;;;;4913576;29;38714;-74
2023/03/06 13:10:33;;;;;;;8.87;6.73;;;8.40;99.90;;;;;;4878648;29;48792;-74
2023/03/06 13:13:19;;;;;;;13.30;8.07;;;8.50;99.90;;;;;;4926544;29;39233;-74